sensor_id;sensor_type;location;lat;lon;timestamp;temperature;humidity
65692;DHT22;52411;52.716;6.696;2023-02-21T00:01:56;9.70;99.90
65692;DHT22;52411;52.716;6.696;2023-02-21T00:04:40;9.70;99.90
65692;DHT22;52411;52.716;6.696;2023-02-21T00:07:24;9.70;99.90
65692;DHT22;52411;52.716;6.696;2023-02-21T00:10:11;9.70;99.90
65692;DHT22;52411;52.716;6.696;2023-02-21T00:12:56;9.70;99.90
65692;DHT22;52411;52.716;6.696;2023-02-21T00:15:40;9.70;99.90
65692;DHT22;52411;52.716;6.696;2023-02-21T00:18:24;9.70;99.90
65692;DHT22;52411;52.716;6.696;2023-02-21T00:21:08;9.70;99.90
65692;DHT22;52411;52.716;6.696;2023-02-21T00:23:52;9.70;99.90
65692;DHT22;52411;52.716;6.696;2023-02-21T00:26:36;9.70;99.90
65692;DHT22;52411;52.716;6.696;2023-02-21T00:29:21;9.70;99.90
65692;DHT22;52411;52.716;6.696;2023-02-21T00:32:05;9.70;99.90
65692;DHT22;52411;52.716;6.696;2023-02-21T00:34:49;9.70;99.90
65692;DHT22;52411;52.716;6.696;2023-02-21T00:37:34;9.70;99.90
65692;DHT22;52411;52.716;6.696;2023-02-21T00:40:18;9.70;99.90
65692;DHT22;52411;52.716;6.696;2023-02-21T00:43:03;9.70;99.90
65692;DHT22;52411;52.716;6.696;2023-02-21T00:45:47;9.70;99.90
65692;DHT22;52411;52.716;6.696;2023-02-21T00:48:31;9.70;99.90
65692;DHT22;52411;52.716;6.696;2023-02-21T00:51:16;9.70;99.90
65692;DHT22;52411;52.716;6.696;2023-02-21T00:54:00;9.70;99.90
65692;DHT22;52411;52.716;6.696;2023-02-21T00:56:45;9.70;99.90
65692;DHT22;52411;52.716;6.696;2023-02-21T00:59:29;9.70;99.90
65692;DHT22;52411;52.716;6.696;2023-02-21T01:02:13;9.70;99.90
65692;DHT22;52411;52.716;6.696;2023-02-21T01:04:57;9.60;99.90
65692;DHT22;52411;52.716;6.696;2023-02-21T01:07:41;9.50;99.90
65692;DHT22;52411;52.716;6.696;2023-02-21T01:10:26;9.50;99.90
65692;DHT22;52411;52.716;6.696;2023-02-21T01:13:10;9.50;99.90
65692;DHT22;52411;52.716;6.696;2023-02-21T01:15:54;9.50;99.90
65692;DHT22;52411;52.716;6.696;2023-02-21T01:18:38;9.50;99.90
65692;DHT22;52411;52.716;6.696;2023-02-21T01:21:22;9.60;99.90
65692;DHT22;52411;52.716;6.696;2023-02-21T01:24:11;9.60;99.90
65692;DHT22;52411;52.716;6.696;2023-02-21T01:26:55;9.60;99.90
65692;DHT22;52411;52.716;6.696;2023-02-21T01:29:39;9.60;99.90
65692;DHT22;52411;52.716;6.696;2023-02-21T01:32:23;9.60;99.90
65692;DHT22;52411;52.716;6.696;2023-02-21T01:35:08;9.60;99.90
65692;DHT22;52411;52.716;6.696;2023-02-21T01:37:52;9.60;99.90
65692;DHT22;52411;52.716;6.696;2023-02-21T01:40:37;9.60;99.90
65692;DHT22;52411;52.716;6.696;2023-02-21T01:43:22;9.70;99.90
65692;DHT22;52411;52.716;6.696;2023-02-21T01:46:15;9.70;99.90
65692;DHT22;52411;52.716;6.696;2023-02-21T01:49:06;9.70;99.90
65692;DHT22;52411;52.716;6.696;2023-02-21T01:51:52;9.70;99.90
65692;DHT22;52411;52.716;6.696;2023-02-21T01:54:41;9.70;99.90
65692;DHT22;52411;52.716;6.696;2023-02-21T01:57:26;9.70;99.90
65692;DHT22;52411;52.716;6.696;2023-02-21T02:00:12;9.70;99.90
65692;DHT22;52411;52.716;6.696;2023-02-21T02:03:00;9.70;99.90
65692;DHT22;52411;52.716;6.696;2023-02-21T02:05:48;9.70;99.90
65692;DHT22;52411;52.716;6.696;2023-02-21T02:08:33;9.70;99.90
65692;DHT22;52411;52.716;6.696;2023-02-21T02:14:33;9.60;99.90
65692;DHT22;52411;52.716;6.696;2023-02-21T02:19:48;9.60;99.90
65692;DHT22;52411;52.716;6.696;2023-02-21T02:23:05;9.60;99.90
65692;DHT22;52411;52.716;6.696;2023-02-21T02:31:37;9.70;99.90
65692;DHT22;52411;52.716;6.696;2023-02-21T02:37:20;9.70;99.90
65692;DHT22;52411;52.716;6.696;2023-02-21T02:42:46;9.70;99.90
65692;DHT22;52411;52.716;6.696;2023-02-21T02:45:42;9.70;99.90
65692;DHT22;52411;52.716;6.696;2023-02-21T02:48:29;9.70;99.90
65692;DHT22;52411;52.716;6.696;2023-02-21T02:50:53;9.70;99.90
65692;DHT22;52411;52.716;6.696;2023-02-21T02:53:24;9.70;99.90
65692;DHT22;52411;52.716;6.696;2023-02-21T02:56:10;9.70;99.90
65692;DHT22;52411;52.716;6.696;2023-02-21T02:58:41;9.80;99.90
65692;DHT22;52411;52.716;6.696;2023-02-21T03:06:53;9.70;99.90
65692;DHT22;52411;52.716;6.696;2023-02-21T03:12:07;9.80;99.90
65692;DHT22;52411;52.716;6.696;2023-02-21T03:14:40;9.80;99.90
65692;DHT22;52411;52.716;6.696;2023-02-21T03:17:11;9.80;99.90
65692;DHT22;52411;52.716;6.696;2023-02-21T03:19:41;9.90;99.90
65692;DHT22;52411;52.716;6.696;2023-02-21T03:22:14;9.90;99.90
65692;DHT22;52411;52.716;6.696;2023-02-21T03:24:42;10.00;99.90
65692;DHT22;52411;52.716;6.696;2023-02-21T03:27:09;10.00;99.90
65692;DHT22;52411;52.716;6.696;2023-02-21T03:29:36;10.00;99.90
65692;DHT22;52411;52.716;6.696;2023-02-21T03:32:10;10.10;99.90
65692;DHT22;52411;52.716;6.696;2023-02-21T03:34:38;10.10;99.90
65692;DHT22;52411;52.716;6.696;2023-02-21T03:37:06;10.10;99.90
65692;DHT22;52411;52.716;6.696;2023-02-21T03:39:32;10.10;99.90
65692;DHT22;52411;52.716;6.696;2023-02-21T03:41:58;10.10;99.90
65692;DHT22;52411;52.716;6.696;2023-02-21T03:44:24;10.00;99.90
65692;DHT22;52411;52.716;6.696;2023-02-21T03:46:49;10.00;99.90
65692;DHT22;52411;52.716;6.696;2023-02-21T03:49:15;9.90;99.90
65692;DHT22;52411;52.716;6.696;2023-02-21T03:51:41;9.90;99.90
65692;DHT22;52411;52.716;6.696;2023-02-21T03:54:06;9.90;99.90
65692;DHT22;52411;52.716;6.696;2023-02-21T03:56:32;9.90;99.90
65692;DHT22;52411;52.716;6.696;2023-02-21T03:58:57;9.90;99.90
65692;DHT22;52411;52.716;6.696;2023-02-21T04:01:23;9.90;99.90
65692;DHT22;52411;52.716;6.696;2023-02-21T04:03:49;9.90;99.90
65692;DHT22;52411;52.716;6.696;2023-02-21T04:06:15;9.90;99.90
65692;DHT22;52411;52.716;6.696;2023-02-21T04:08:40;9.90;99.90
65692;DHT22;52411;52.716;6.696;2023-02-21T04:11:06;9.90;99.90
65692;DHT22;52411;52.716;6.696;2023-02-21T04:13:31;9.90;99.90
65692;DHT22;52411;52.716;6.696;2023-02-21T04:15:57;9.90;99.90
65692;DHT22;52411;52.716;6.696;2023-02-21T04:18:22;9.80;99.90
65692;DHT22;52411;52.716;6.696;2023-02-21T04:20:48;9.90;99.90
65692;DHT22;52411;52.716;6.696;2023-02-21T04:23:18;9.90;99.90
65692;DHT22;52411;52.716;6.696;2023-02-21T04:25:44;9.80;99.90
65692;DHT22;52411;52.716;6.696;2023-02-21T04:28:10;9.90;99.90
65692;DHT22;52411;52.716;6.696;2023-02-21T04:30:35;9.80;99.90
65692;DHT22;52411;52.716;6.696;2023-02-21T04:33:02;9.80;99.90
65692;DHT22;52411;52.716;6.696;2023-02-21T04:35:28;9.80;99.90
65692;DHT22;52411;52.716;6.696;2023-02-21T04:37:54;9.80;99.90
65692;DHT22;52411;52.716;6.696;2023-02-21T04:40:20;9.90;99.90
65692;DHT22;52411;52.716;6.696;2023-02-21T04:42:45;9.80;99.90
65692;DHT22;52411;52.716;6.696;2023-02-21T04:45:11;9.90;99.90
65692;DHT22;52411;52.716;6.696;2023-02-21T04:47:37;9.90;99.90
65692;DHT22;52411;52.716;6.696;2023-02-21T04:50:03;9.80;99.90
65692;DHT22;52411;52.716;6.696;2023-02-21T04:52:29;9.80;99.90
65692;DHT22;52411;52.716;6.696;2023-02-21T04:54:54;9.90;99.90
65692;DHT22;52411;52.716;6.696;2023-02-21T04:57:20;9.80;99.90
65692;DHT22;52411;52.716;6.696;2023-02-21T04:59:46;9.80;99.90
65692;DHT22;52411;52.716;6.696;2023-02-21T05:02:12;9.90;99.90
65692;DHT22;52411;52.716;6.696;2023-02-21T05:04:37;9.80;99.90
65692;DHT22;52411;52.716;6.696;2023-02-21T05:07:04;9.80;99.90
65692;DHT22;52411;52.716;6.696;2023-02-21T05:09:30;9.90;99.90
65692;DHT22;52411;52.716;6.696;2023-02-21T05:11:55;9.90;99.90
65692;DHT22;52411;52.716;6.696;2023-02-21T05:14:21;9.90;99.90
65692;DHT22;52411;52.716;6.696;2023-02-21T05:16:47;9.90;99.90
65692;DHT22;52411;52.716;6.696;2023-02-21T05:19:16;9.90;99.90
65692;DHT22;52411;52.716;6.696;2023-02-21T05:21:53;9.90;99.90
65692;DHT22;52411;52.716;6.696;2023-02-21T05:24:18;9.90;99.90
65692;DHT22;52411;52.716;6.696;2023-02-21T05:26:44;9.80;99.90
65692;DHT22;52411;52.716;6.696;2023-02-21T05:29:10;9.80;99.90
65692;DHT22;52411;52.716;6.696;2023-02-21T05:31:35;9.80;99.90
65692;DHT22;52411;52.716;6.696;2023-02-21T05:34:01;9.80;99.90
65692;DHT22;52411;52.716;6.696;2023-02-21T05:36:26;9.80;99.90
65692;DHT22;52411;52.716;6.696;2023-02-21T05:38:54;9.70;99.90
65692;DHT22;52411;52.716;6.696;2023-02-21T05:41:20;9.70;99.90
65692;DHT22;52411;52.716;6.696;2023-02-21T05:43:47;9.70;99.90
65692;DHT22;52411;52.716;6.696;2023-02-21T05:46:39;9.70;99.90
65692;DHT22;52411;52.716;6.696;2023-02-21T05:49:05;9.70;99.90
65692;DHT22;52411;52.716;6.696;2023-02-21T05:51:40;9.70;99.90
65692;DHT22;52411;52.716;6.696;2023-02-21T05:54:07;9.70;99.90
65692;DHT22;52411;52.716;6.696;2023-02-21T05:56:38;9.70;99.90
65692;DHT22;52411;52.716;6.696;2023-02-21T05:59:04;9.70;99.90
65692;DHT22;52411;52.716;6.696;2023-02-21T06:01:29;9.70;99.90
65692;DHT22;52411;52.716;6.696;2023-02-21T06:03:55;9.70;99.90
65692;DHT22;52411;52.716;6.696;2023-02-21T06:06:21;9.70;99.90
65692;DHT22;52411;52.716;6.696;2023-02-21T06:08:47;9.70;99.90
65692;DHT22;52411;52.716;6.696;2023-02-21T06:11:15;9.70;99.90
65692;DHT22;52411;52.716;6.696;2023-02-21T06:13:47;9.70;99.90
65692;DHT22;52411;52.716;6.696;2023-02-21T06:16:17;9.70;99.90
65692;DHT22;52411;52.716;6.696;2023-02-21T06:18:43;9.70;99.90
65692;DHT22;52411;52.716;6.696;2023-02-21T06:21:08;9.70;99.90
65692;DHT22;52411;52.716;6.696;2023-02-21T06:23:34;9.70;99.90
65692;DHT22;52411;52.716;6.696;2023-02-21T06:25:59;9.70;99.90
65692;DHT22;52411;52.716;6.696;2023-02-21T06:28:29;9.60;99.90
65692;DHT22;52411;52.716;6.696;2023-02-21T06:30:55;9.70;99.90
65692;DHT22;52411;52.716;6.696;2023-02-21T06:33:21;9.70;99.90
65692;DHT22;52411;52.716;6.696;2023-02-21T06:35:46;9.60;99.90
65692;DHT22;52411;52.716;6.696;2023-02-21T06:38:12;9.70;99.90
65692;DHT22;52411;52.716;6.696;2023-02-21T06:40:38;9.60;99.90
65692;DHT22;52411;52.716;6.696;2023-02-21T06:43:03;9.70;99.90
65692;DHT22;52411;52.716;6.696;2023-02-21T06:45:29;9.70;99.90
65692;DHT22;52411;52.716;6.696;2023-02-21T06:47:54;9.70;99.90
65692;DHT22;52411;52.716;6.696;2023-02-21T06:50:20;9.70;99.90
65692;DHT22;52411;52.716;6.696;2023-02-21T06:52:45;9.70;99.90
65692;DHT22;52411;52.716;6.696;2023-02-21T06:55:11;9.60;99.90
65692;DHT22;52411;52.716;6.696;2023-02-21T06:57:37;9.60;99.90
65692;DHT22;52411;52.716;6.696;2023-02-21T07:00:04;9.60;99.90
65692;DHT22;52411;52.716;6.696;2023-02-21T07:02:30;9.60;99.90
65692;DHT22;52411;52.716;6.696;2023-02-21T07:04:55;9.60;99.90
65692;DHT22;52411;52.716;6.696;2023-02-21T07:07:21;9.50;99.90
65692;DHT22;52411;52.716;6.696;2023-02-21T07:09:47;9.50;99.90
65692;DHT22;52411;52.716;6.696;2023-02-21T07:12:12;9.50;99.90
65692;DHT22;52411;52.716;6.696;2023-02-21T07:14:38;9.50;99.90
65692;DHT22;52411;52.716;6.696;2023-02-21T07:17:03;9.50;99.90
65692;DHT22;52411;52.716;6.696;2023-02-21T07:19:29;9.50;99.90
65692;DHT22;52411;52.716;6.696;2023-02-21T07:21:55;9.50;99.90
65692;DHT22;52411;52.716;6.696;2023-02-21T07:24:20;9.50;99.90
65692;DHT22;52411;52.716;6.696;2023-02-21T07:26:46;9.50;99.90
65692;DHT22;52411;52.716;6.696;2023-02-21T07:29:11;9.50;99.90
65692;DHT22;52411;52.716;6.696;2023-02-21T07:31:37;9.50;99.90
65692;DHT22;52411;52.716;6.696;2023-02-21T07:34:03;9.60;99.90
65692;DHT22;52411;52.716;6.696;2023-02-21T07:36:28;9.50;99.90
65692;DHT22;52411;52.716;6.696;2023-02-21T07:38:54;9.50;99.90
65692;DHT22;52411;52.716;6.696;2023-02-21T07:41:19;9.60;99.90
65692;DHT22;52411;52.716;6.696;2023-02-21T07:43:45;9.60;99.90
65692;DHT22;52411;52.716;6.696;2023-02-21T07:46:12;9.60;99.90
65692;DHT22;52411;52.716;6.696;2023-02-21T07:48:38;9.60;99.90
65692;DHT22;52411;52.716;6.696;2023-02-21T07:51:06;9.60;99.90
65692;DHT22;52411;52.716;6.696;2023-02-21T07:53:32;9.60;99.90
65692;DHT22;52411;52.716;6.696;2023-02-21T07:55:58;9.60;99.90
65692;DHT22;52411;52.716;6.696;2023-02-21T07:58:23;9.60;99.90
65692;DHT22;52411;52.716;6.696;2023-02-21T08:00:50;9.60;99.90
65692;DHT22;52411;52.716;6.696;2023-02-21T08:03:17;9.70;99.90
65692;DHT22;52411;52.716;6.696;2023-02-21T08:05:42;9.70;99.90
65692;DHT22;52411;52.716;6.696;2023-02-21T08:08:10;9.70;99.90
65692;DHT22;52411;52.716;6.696;2023-02-21T08:10:36;9.70;99.90
65692;DHT22;52411;52.716;6.696;2023-02-21T08:13:03;9.70;99.90
65692;DHT22;52411;52.716;6.696;2023-02-21T08:15:29;9.70;99.90
65692;DHT22;52411;52.716;6.696;2023-02-21T08:17:54;9.70;99.90
65692;DHT22;52411;52.716;6.696;2023-02-21T08:20:20;9.80;99.90
65692;DHT22;52411;52.716;6.696;2023-02-21T08:22:46;9.80;99.90
65692;DHT22;52411;52.716;6.696;2023-02-21T08:25:13;9.80;99.90
65692;DHT22;52411;52.716;6.696;2023-02-21T08:27:40;9.80;99.90
65692;DHT22;52411;52.716;6.696;2023-02-21T08:30:07;9.80;99.90
65692;DHT22;52411;52.716;6.696;2023-02-21T08:32:34;9.80;99.90
65692;DHT22;52411;52.716;6.696;2023-02-21T08:35:00;9.80;99.90
65692;DHT22;52411;52.716;6.696;2023-02-21T08:37:25;9.80;99.90
65692;DHT22;52411;52.716;6.696;2023-02-21T08:39:58;9.80;99.90
65692;DHT22;52411;52.716;6.696;2023-02-21T08:42:24;9.90;99.90
65692;DHT22;52411;52.716;6.696;2023-02-21T08:44:50;9.90;99.90
65692;DHT22;52411;52.716;6.696;2023-02-21T08:47:16;9.90;99.90
65692;DHT22;52411;52.716;6.696;2023-02-21T08:49:46;9.90;99.90
65692;DHT22;52411;52.716;6.696;2023-02-21T08:52:16;9.90;99.90
65692;DHT22;52411;52.716;6.696;2023-02-21T08:54:43;9.90;99.90
65692;DHT22;52411;52.716;6.696;2023-02-21T08:57:09;9.90;99.90
65692;DHT22;52411;52.716;6.696;2023-02-21T08:59:39;9.90;99.90
65692;DHT22;52411;52.716;6.696;2023-02-21T09:02:13;10.00;99.90
65692;DHT22;52411;52.716;6.696;2023-02-21T09:04:40;10.00;99.90
65692;DHT22;52411;52.716;6.696;2023-02-21T09:07:06;9.90;99.90
65692;DHT22;52411;52.716;6.696;2023-02-21T09:09:31;9.90;99.90
65692;DHT22;52411;52.716;6.696;2023-02-21T09:11:57;9.90;99.90
65692;DHT22;52411;52.716;6.696;2023-02-21T09:14:23;9.90;99.90
65692;DHT22;52411;52.716;6.696;2023-02-21T09:16:48;10.00;99.90
65692;DHT22;52411;52.716;6.696;2023-02-21T09:19:14;9.90;99.90
65692;DHT22;52411;52.716;6.696;2023-02-21T09:21:45;9.90;99.90
65692;DHT22;52411;52.716;6.696;2023-02-21T09:24:11;9.90;99.90
65692;DHT22;52411;52.716;6.696;2023-02-21T09:26:37;9.90;99.90
65692;DHT22;52411;52.716;6.696;2023-02-21T09:29:03;10.00;99.90
65692;DHT22;52411;52.716;6.696;2023-02-21T09:31:28;10.00;99.90
65692;DHT22;52411;52.716;6.696;2023-02-21T09:33:54;9.90;99.90
65692;DHT22;52411;52.716;6.696;2023-02-21T09:36:20;10.00;99.90
65692;DHT22;52411;52.716;6.696;2023-02-21T09:38:49;9.90;99.90
65692;DHT22;52411;52.716;6.696;2023-02-21T09:41:15;9.90;99.90
65692;DHT22;52411;52.716;6.696;2023-02-21T09:43:50;10.00;99.90
65692;DHT22;52411;52.716;6.696;2023-02-21T09:46:18;10.00;99.90
65692;DHT22;52411;52.716;6.696;2023-02-21T09:48:45;10.10;99.90
65692;DHT22;52411;52.716;6.696;2023-02-21T09:51:13;10.10;99.90
65692;DHT22;52411;52.716;6.696;2023-02-21T09:53:42;10.10;99.90
65692;DHT22;52411;52.716;6.696;2023-02-21T09:58:58;10.10;99.90
65692;DHT22;52411;52.716;6.696;2023-02-21T10:04:30;10.20;99.90
65692;DHT22;52411;52.716;6.696;2023-02-21T10:07:05;10.20;99.90
65692;DHT22;52411;52.716;6.696;2023-02-21T10:10:01;10.30;99.90
65692;DHT22;52411;52.716;6.696;2023-02-21T10:12:43;10.30;99.90
65692;DHT22;52411;52.716;6.696;2023-02-21T10:18:23;10.30;99.90
65692;DHT22;52411;52.716;6.696;2023-02-21T10:20:52;10.30;99.90
65692;DHT22;52411;52.716;6.696;2023-02-21T10:26:13;10.30;99.90
65692;DHT22;52411;52.716;6.696;2023-02-21T10:28:40;10.30;99.90
65692;DHT22;52411;52.716;6.696;2023-02-21T10:31:15;10.30;99.90
65692;DHT22;52411;52.716;6.696;2023-02-21T10:33:42;10.40;99.90
65692;DHT22;52411;52.716;6.696;2023-02-21T10:36:21;10.40;99.90
65692;DHT22;52411;52.716;6.696;2023-02-21T10:41:19;10.50;99.90
65692;DHT22;52411;52.716;6.696;2023-02-21T10:43:51;10.50;99.90
65692;DHT22;52411;52.716;6.696;2023-02-21T10:48:52;10.60;99.90
65692;DHT22;52411;52.716;6.696;2023-02-21T10:51:33;10.60;99.90
65692;DHT22;52411;52.716;6.696;2023-02-21T10:54:23;10.60;99.90
65692;DHT22;52411;52.716;6.696;2023-02-21T10:56:51;10.60;99.90
65692;DHT22;52411;52.716;6.696;2023-02-21T10:59:24;10.60;99.90
65692;DHT22;52411;52.716;6.696;2023-02-21T11:01:51;10.70;99.90
65692;DHT22;52411;52.716;6.696;2023-02-21T11:07:07;10.80;99.90
65692;DHT22;52411;52.716;6.696;2023-02-21T11:09:34;10.80;99.90
65692;DHT22;52411;52.716;6.696;2023-02-21T11:15:15;10.80;99.90
65692;DHT22;52411;52.716;6.696;2023-02-21T11:17:42;10.80;99.90
65692;DHT22;52411;52.716;6.696;2023-02-21T11:22:48;10.80;99.90
65692;DHT22;52411;52.716;6.696;2023-02-21T11:28:19;10.80;99.90
65692;DHT22;52411;52.716;6.696;2023-02-21T11:33:20;10.80;99.90
65692;DHT22;52411;52.716;6.696;2023-02-21T11:35:49;10.70;99.90
65692;DHT22;52411;52.716;6.696;2023-02-21T11:38:34;10.80;99.90
65692;DHT22;52411;52.716;6.696;2023-02-21T11:41:01;10.80;99.90
65692;DHT22;52411;52.716;6.696;2023-02-21T11:43:29;10.80;99.90
65692;DHT22;52411;52.716;6.696;2023-02-21T11:46:14;10.80;99.90
65692;DHT22;52411;52.716;6.696;2023-02-21T11:53:55;10.70;99.90
65692;DHT22;52411;52.716;6.696;2023-02-21T11:56:29;10.80;99.90
65692;DHT22;52411;52.716;6.696;2023-02-21T12:05:00;10.90;99.90
65692;DHT22;52411;52.716;6.696;2023-02-21T12:07:52;10.90;99.90
65692;DHT22;52411;52.716;6.696;2023-02-21T12:21:28;10.80;99.90
65692;DHT22;52411;52.716;6.696;2023-02-21T12:26:59;10.80;99.90
65692;DHT22;52411;52.716;6.696;2023-02-21T12:29:32;10.80;99.90
65692;DHT22;52411;52.716;6.696;2023-02-21T12:45:43;10.80;99.90
65692;DHT22;52411;52.716;6.696;2023-02-21T12:51:02;10.70;99.90
65692;DHT22;52411;52.716;6.696;2023-02-21T12:56:56;10.60;99.90
65692;DHT22;52411;52.716;6.696;2023-02-21T13:00:14;10.50;99.90
65692;DHT22;52411;52.716;6.696;2023-02-21T13:05:06;10.50;99.90
65692;DHT22;52411;52.716;6.696;2023-02-21T13:08:00;10.50;99.90
65692;DHT22;52411;52.716;6.696;2023-02-21T13:10:34;10.50;99.90
65692;DHT22;52411;52.716;6.696;2023-02-21T13:13:10;10.50;99.90
65692;DHT22;52411;52.716;6.696;2023-02-21T13:15:40;10.50;99.90
65692;DHT22;52411;52.716;6.696;2023-02-21T13:20:41;10.50;99.90
65692;DHT22;52411;52.716;6.696;2023-02-21T13:26:39;10.50;99.90
65692;DHT22;52411;52.716;6.696;2023-02-21T13:29:23;10.60;99.90
65692;DHT22;52411;52.716;6.696;2023-02-21T13:32:09;10.60;99.90
65692;DHT22;52411;52.716;6.696;2023-02-21T13:35:00;10.50;99.90
65692;DHT22;52411;52.716;6.696;2023-02-21T13:37:29;10.60;99.90
65692;DHT22;52411;52.716;6.696;2023-02-21T13:40:03;10.60;99.90
65692;DHT22;52411;52.716;6.696;2023-02-21T13:42:35;10.50;99.90
65692;DHT22;52411;52.716;6.696;2023-02-21T13:45:23;10.50;99.90
65692;DHT22;52411;52.716;6.696;2023-02-21T13:55:38;10.60;99.90
65692;DHT22;52411;52.716;6.696;2023-02-21T14:08:13;10.60;99.90
65692;DHT22;52411;52.716;6.696;2023-02-21T14:10:55;10.60;99.90
65692;DHT22;52411;52.716;6.696;2023-02-21T14:13:40;10.60;99.90
65692;DHT22;52411;52.716;6.696;2023-02-21T14:18:45;10.60;99.90
65692;DHT22;52411;52.716;6.696;2023-02-21T14:21:26;10.60;99.90
65692;DHT22;52411;52.716;6.696;2023-02-21T14:23:59;10.60;99.90
65692;DHT22;52411;52.716;6.696;2023-02-21T14:26:44;10.60;99.90
65692;DHT22;52411;52.716;6.696;2023-02-21T14:29:30;10.60;99.90
65692;DHT22;52411;52.716;6.696;2023-02-21T14:32:15;10.60;99.90
65692;DHT22;52411;52.716;6.696;2023-02-21T14:34:50;10.60;99.90
65692;DHT22;52411;52.716;6.696;2023-02-21T14:37:44;10.60;99.90
65692;DHT22;52411;52.716;6.696;2023-02-21T14:40:30;10.60;99.90
65692;DHT22;52411;52.716;6.696;2023-02-21T14:46:36;10.60;99.90
65692;DHT22;52411;52.716;6.696;2023-02-21T14:49:33;10.60;99.90
65692;DHT22;52411;52.716;6.696;2023-02-21T15:03:30;10.40;99.90
65692;DHT22;52411;52.716;6.696;2023-02-21T15:06:06;10.40;99.90
65692;DHT22;52411;52.716;6.696;2023-02-21T15:08:47;10.30;99.90
65692;DHT22;52411;52.716;6.696;2023-02-21T15:11:26;10.30;99.90
65692;DHT22;52411;52.716;6.696;2023-02-21T15:14:12;10.30;99.90
65692;DHT22;52411;52.716;6.696;2023-02-21T15:16:43;10.30;99.90
65692;DHT22;52411;52.716;6.696;2023-02-21T15:19:23;10.20;99.90
65692;DHT22;52411;52.716;6.696;2023-02-21T15:22:22;10.30;99.90
65692;DHT22;52411;52.716;6.696;2023-02-21T15:24:58;10.20;99.90
65692;DHT22;52411;52.716;6.696;2023-02-21T15:27:24;10.20;99.90
65692;DHT22;52411;52.716;6.696;2023-02-21T15:30:16;10.20;99.90
65692;DHT22;52411;52.716;6.696;2023-02-21T15:32:42;10.20;99.90
65692;DHT22;52411;52.716;6.696;2023-02-21T15:35:19;10.20;99.90
65692;DHT22;52411;52.716;6.696;2023-02-21T15:37:46;10.20;99.90
65692;DHT22;52411;52.716;6.696;2023-02-21T15:40:30;10.10;99.90
65692;DHT22;52411;52.716;6.696;2023-02-21T15:42:56;10.10;99.90
65692;DHT22;52411;52.716;6.696;2023-02-21T15:45:26;10.10;99.90
65692;DHT22;52411;52.716;6.696;2023-02-21T15:47:53;10.10;99.90
65692;DHT22;52411;52.716;6.696;2023-02-21T15:50:38;10.10;99.90
65692;DHT22;52411;52.716;6.696;2023-02-21T15:53:13;10.10;99.90
65692;DHT22;52411;52.716;6.696;2023-02-21T15:55:39;10.10;99.90
65692;DHT22;52411;52.716;6.696;2023-02-21T16:00:40;10.00;99.90
65692;DHT22;52411;52.716;6.696;2023-02-21T16:09:06;10.00;99.90
65692;DHT22;52411;52.716;6.696;2023-02-21T16:11:43;10.00;99.90
65692;DHT22;52411;52.716;6.696;2023-02-21T16:16:45;10.00;99.90
65692;DHT22;52411;52.716;6.696;2023-02-21T16:19:11;10.00;99.90
65692;DHT22;52411;52.716;6.696;2023-02-21T16:21:37;10.00;99.90
65692;DHT22;52411;52.716;6.696;2023-02-21T16:24:27;10.00;99.90
65692;DHT22;52411;52.716;6.696;2023-02-21T16:27:13;10.00;99.90
65692;DHT22;52411;52.716;6.696;2023-02-21T16:29:39;9.90;99.90
65692;DHT22;52411;52.716;6.696;2023-02-21T16:32:05;10.00;99.90
65692;DHT22;52411;52.716;6.696;2023-02-21T16:34:32;9.90;99.90
65692;DHT22;52411;52.716;6.696;2023-02-21T16:37:03;9.90;99.90
65692;DHT22;52411;52.716;6.696;2023-02-21T16:39:29;9.90;99.90
65692;DHT22;52411;52.716;6.696;2023-02-21T16:41:56;9.90;99.90
65692;DHT22;52411;52.716;6.696;2023-02-21T16:44:22;9.90;99.90
65692;DHT22;52411;52.716;6.696;2023-02-21T16:46:50;9.90;99.90
65692;DHT22;52411;52.716;6.696;2023-02-21T16:49:16;9.90;99.90
65692;DHT22;52411;52.716;6.696;2023-02-21T16:51:42;9.90;99.90
65692;DHT22;52411;52.716;6.696;2023-02-21T16:54:09;9.80;99.90
65692;DHT22;52411;52.716;6.696;2023-02-21T16:56:37;9.80;99.90
65692;DHT22;52411;52.716;6.696;2023-02-21T16:59:10;9.90;99.90
65692;DHT22;52411;52.716;6.696;2023-02-21T17:01:36;9.90;99.90
65692;DHT22;52411;52.716;6.696;2023-02-21T17:04:03;9.80;99.90
65692;DHT22;52411;52.716;6.696;2023-02-21T17:06:31;9.80;99.90
65692;DHT22;52411;52.716;6.696;2023-02-21T17:08:58;9.80;99.90
65692;DHT22;52411;52.716;6.696;2023-02-21T17:11:25;9.80;99.90
65692;DHT22;52411;52.716;6.696;2023-02-21T17:13:50;9.80;99.90
65692;DHT22;52411;52.716;6.696;2023-02-21T17:16:17;9.80;99.90
65692;DHT22;52411;52.716;6.696;2023-02-21T17:18:44;9.80;99.90
65692;DHT22;52411;52.716;6.696;2023-02-21T17:21:10;9.80;99.90
65692;DHT22;52411;52.716;6.696;2023-02-21T17:23:36;9.80;99.90
65692;DHT22;52411;52.716;6.696;2023-02-21T17:26:01;9.80;99.90
65692;DHT22;52411;52.716;6.696;2023-02-21T17:28:28;9.70;99.90
65692;DHT22;52411;52.716;6.696;2023-02-21T17:30:54;9.70;99.90
65692;DHT22;52411;52.716;6.696;2023-02-21T17:33:20;9.80;99.90
65692;DHT22;52411;52.716;6.696;2023-02-21T17:35:45;9.70;99.90
65692;DHT22;52411;52.716;6.696;2023-02-21T17:38:11;9.70;99.90
65692;DHT22;52411;52.716;6.696;2023-02-21T17:40:37;9.70;99.90
65692;DHT22;52411;52.716;6.696;2023-02-21T17:43:02;9.70;99.90
65692;DHT22;52411;52.716;6.696;2023-02-21T17:45:32;9.70;99.90
65692;DHT22;52411;52.716;6.696;2023-02-21T17:47:57;9.70;99.90
65692;DHT22;52411;52.716;6.696;2023-02-21T17:50:23;9.70;99.90
65692;DHT22;52411;52.716;6.696;2023-02-21T17:52:49;9.70;99.90
65692;DHT22;52411;52.716;6.696;2023-02-21T17:55:22;9.60;99.90
65692;DHT22;52411;52.716;6.696;2023-02-21T17:57:50;9.70;99.90
65692;DHT22;52411;52.716;6.696;2023-02-21T18:00:20;9.70;99.90
65692;DHT22;52411;52.716;6.696;2023-02-21T18:02:47;9.70;99.90
65692;DHT22;52411;52.716;6.696;2023-02-21T18:05:13;9.60;99.90
65692;DHT22;52411;52.716;6.696;2023-02-21T18:07:39;9.60;99.90
65692;DHT22;52411;52.716;6.696;2023-02-21T18:10:05;9.60;99.90
65692;DHT22;52411;52.716;6.696;2023-02-21T18:12:31;9.60;99.90
65692;DHT22;52411;52.716;6.696;2023-02-21T18:15:00;9.60;99.90
65692;DHT22;52411;52.716;6.696;2023-02-21T18:17:26;9.50;99.90
65692;DHT22;52411;52.716;6.696;2023-02-21T18:19:51;9.60;99.90
65692;DHT22;52411;52.716;6.696;2023-02-21T18:22:17;9.50;99.90
65692;DHT22;52411;52.716;6.696;2023-02-21T18:24:42;9.50;99.90
65692;DHT22;52411;52.716;6.696;2023-02-21T18:27:09;9.50;99.90
65692;DHT22;52411;52.716;6.696;2023-02-21T18:29:35;9.50;99.90
65692;DHT22;52411;52.716;6.696;2023-02-21T18:32:00;9.50;99.90
65692;DHT22;52411;52.716;6.696;2023-02-21T18:34:26;9.50;99.90
65692;DHT22;52411;52.716;6.696;2023-02-21T18:36:53;9.50;99.90
65692;DHT22;52411;52.716;6.696;2023-02-21T18:39:20;9.40;99.90
65692;DHT22;52411;52.716;6.696;2023-02-21T18:41:46;9.40;99.90
65692;DHT22;52411;52.716;6.696;2023-02-21T18:44:12;9.40;99.90
65692;DHT22;52411;52.716;6.696;2023-02-21T18:46:38;9.40;99.90